createdAt,value
2022-08-20T00:01:01.689Z,100456
2022-08-20T00:01:53.984Z,100455
2022-08-20T00:02:57.874Z,100455
2022-08-20T00:03:53.979Z,100454
2022-08-20T00:04:54.226Z,100452
2022-08-20T00:06:01.640Z,100454
2022-08-20T00:06:53.987Z,100452
2022-08-20T00:07:54.145Z,100455
2022-08-20T00:08:54.065Z,100448
2022-08-20T00:09:53.911Z,100443
2022-08-20T00:10:55.735Z,100447
2022-08-20T00:11:53.957Z,100443
2022-08-20T00:12:54.567Z,100445
2022-08-20T00:13:56.690Z,100438
2022-08-20T00:14:53.934Z,100438
2022-08-20T00:15:54.449Z,100440
2022-08-20T00:16:54.025Z,100441
2022-08-20T00:17:54.899Z,100442
2022-08-20T00:18:54.476Z,100442
2022-08-20T00:19:53.949Z,100439
2022-08-20T00:20:55.642Z,100437
2022-08-20T00:21:58.180Z,100438
2022-08-20T00:22:54.276Z,100434
2022-08-20T00:23:55.569Z,100434
2022-08-20T00:24:53.915Z,100430
2022-08-20T00:25:54.516Z,100432
2022-08-20T00:26:53.959Z,100429
2022-08-20T00:27:53.952Z,100425
2022-08-20T00:29:53.994Z,100422
2022-08-20T00:30:53.987Z,100414
2022-08-20T00:31:53.941Z,100413
2022-08-20T00:32:58.018Z,100407
2022-08-20T00:33:54.570Z,100409
2022-08-20T00:34:53.900Z,100407
2022-08-20T00:35:57.941Z,100412
2022-08-20T00:36:53.877Z,100409
2022-08-20T00:37:57.455Z,100408
2022-08-20T00:38:53.902Z,100404
2022-08-20T00:39:53.978Z,100404
2022-08-20T00:40:56.442Z,100405
2022-08-20T00:41:53.972Z,100407
2022-08-20T00:42:58.245Z,100401
2022-08-20T00:44:09.288Z,100400
2022-08-20T00:44:53.857Z,100396
2022-08-20T00:45:56.565Z,100399
2022-08-20T00:46:54.760Z,100403
2022-08-20T00:47:55.757Z,100401
2022-08-20T00:48:56.320Z,100398
2022-08-20T00:49:53.874Z,100399
2022-08-20T00:50:57.997Z,100393
2022-08-20T00:51:57.788Z,100387
2022-08-20T00:52:54.728Z,100389
2022-08-20T00:53:56.542Z,100385
2022-08-20T00:54:58.855Z,100382
2022-08-20T00:55:54.024Z,100380
2022-08-20T00:57:03.717Z,100378
2022-08-20T00:58:01.369Z,100378
2022-08-20T00:58:55.211Z,100383
2022-08-20T01:00:53.921Z,100387
2022-08-20T01:01:55.138Z,100387
2022-08-20T01:02:54.935Z,100387
2022-08-20T01:03:56.727Z,100381
2022-08-20T01:04:55.417Z,100378
2022-08-20T01:05:54.179Z,100375
2022-08-20T01:06:53.960Z,100376
2022-08-20T01:07:55.788Z,100374
2022-08-20T01:08:54.207Z,100378
2022-08-20T01:11:05.121Z,100374
2022-08-20T01:11:55.386Z,100370
2022-08-20T01:12:59.208Z,100371
2022-08-20T01:13:54.947Z,100366
2022-08-20T01:14:55.794Z,100366
2022-08-20T01:15:56.571Z,100364
2022-08-20T01:16:58.782Z,100365
2022-08-20T01:17:58.849Z,100361
2022-08-20T01:18:55.301Z,100361
2022-08-20T01:20:58.424Z,100358
2022-08-20T01:26:56.080Z,100350
2022-08-20T01:27:56.185Z,100349
2022-08-20T01:28:58.095Z,100347
2022-08-20T01:29:54.675Z,100344
2022-08-20T01:30:54.819Z,100342
2022-08-20T01:31:54.047Z,100344
2022-08-20T01:32:53.935Z,100344
2022-08-20T01:33:56.477Z,100354
2022-08-20T01:34:53.896Z,100349
2022-08-20T01:35:55.122Z,100346
2022-08-20T01:36:57.582Z,100347
2022-08-20T01:37:54.900Z,100341
2022-08-20T01:38:54.882Z,100342
2022-08-20T01:39:54.388Z,100341
2022-08-20T01:40:59.651Z,100341
2022-08-20T01:42:59.247Z,100340
2022-08-20T01:44:53.989Z,100339
2022-08-20T01:45:54.679Z,100337
2022-08-20T01:46:57.836Z,100337
2022-08-20T01:49:59.975Z,100341
2022-08-20T01:51:05.187Z,100341
2022-08-20T01:51:55.748Z,100339
2022-08-20T01:53:56.091Z,100336
2022-08-20T01:54:53.919Z,100333
2022-08-20T01:55:53.925Z,100339
2022-08-20T01:56:58.439Z,100336
2022-08-20T01:57:54.059Z,100339
2022-08-20T01:58:58.842Z,100343
2022-08-20T02:01:55.006Z,100337
2022-08-20T02:06:58.309Z,100329
2022-08-20T02:15:54.561Z,100316
2022-08-20T02:21:59.371Z,100314
2022-08-20T02:22:57.162Z,100314
2022-08-20T02:23:53.870Z,100312
2022-08-20T02:24:54.311Z,100312
2022-08-20T02:25:54.055Z,100312
2022-08-20T02:26:54.009Z,100314
2022-08-20T02:27:55.755Z,100312
2022-08-20T02:28:55.922Z,100313
2022-08-20T02:29:54.555Z,100314
2022-08-20T02:30:55.624Z,100321
2022-08-20T02:32:23.494Z,100316
2022-08-20T02:34:21.619Z,100320
2022-08-20T02:34:53.801Z,100323
2022-08-20T02:35:57.019Z,100323
2022-08-20T02:36:55.162Z,100325
2022-08-20T02:37:55.416Z,100325
2022-08-20T02:38:53.954Z,100327
2022-08-20T02:39:53.859Z,100325
2022-08-20T02:40:55.648Z,100324
2022-08-20T02:41:54.624Z,100322
2022-08-20T02:42:54.745Z,100319
2022-08-20T02:43:53.852Z,100320
2022-08-20T02:44:54.532Z,100324
2022-08-20T02:45:53.773Z,100330
2022-08-20T02:46:53.888Z,100331
2022-08-20T02:47:54.543Z,100334
2022-08-20T02:48:53.828Z,100334
2022-08-20T02:49:54.506Z,100336
2022-08-20T02:50:57.014Z,100342
2022-08-20T02:51:53.827Z,100340
2022-08-20T02:52:55.549Z,100340
2022-08-20T02:53:54.426Z,100342
2022-08-20T02:54:53.953Z,100341
2022-08-20T02:55:54.082Z,100346
2022-08-20T02:56:54.043Z,100343
2022-08-20T02:57:55.560Z,100346
2022-08-20T02:58:53.851Z,100347
2022-08-20T02:59:53.982Z,100347
2022-08-20T03:00:56.926Z,100343
2022-08-20T03:01:59.132Z,100344
2022-08-20T03:02:54.113Z,100347
2022-08-20T03:03:57.224Z,100345
2022-08-20T03:04:53.877Z,100351
2022-08-20T03:05:57.303Z,100358
2022-08-20T03:06:53.792Z,100379
2022-08-20T03:07:56.960Z,100395
2022-08-20T03:08:54.441Z,100396
2022-08-20T03:09:53.949Z,100406
2022-08-20T03:10:53.953Z,100402
2022-08-20T03:11:54.437Z,100405
2022-08-20T03:12:54.494Z,100404
2022-08-20T03:13:53.911Z,100404
2022-08-20T03:14:53.793Z,100410
2022-08-20T03:15:58.807Z,100411
2022-08-20T03:16:53.832Z,100411
2022-08-20T03:17:54.107Z,100416
2022-08-20T03:18:53.972Z,100410
2022-08-20T03:19:53.860Z,100412
2022-08-20T03:20:54.074Z,100411
2022-08-20T03:21:54.145Z,100412
2022-08-20T03:22:54.395Z,100414
2022-08-20T03:23:53.823Z,100419
2022-08-20T03:24:54.070Z,100420
2022-08-20T03:25:53.975Z,100425
2022-08-20T03:26:53.902Z,100428
2022-08-20T03:27:54.811Z,100431
2022-08-20T03:28:53.967Z,100425
2022-08-20T03:29:53.839Z,100422
2022-08-20T03:30:56.132Z,100426
2022-08-20T03:31:53.842Z,100424
2022-08-20T03:32:55.112Z,100418
2022-08-20T03:33:53.986Z,100419
2022-08-20T03:34:53.792Z,100419
2022-08-20T03:35:53.773Z,100419
2022-08-20T03:36:53.766Z,100417
2022-08-20T03:37:54.685Z,100425
2022-08-20T03:38:53.917Z,100426
2022-08-20T03:39:53.879Z,100420
2022-08-20T03:40:54.085Z,100420
2022-08-20T03:41:53.824Z,100424
2022-08-20T03:42:54.117Z,100422
2022-08-20T03:43:54.882Z,100416
2022-08-20T03:44:58.872Z,100417
2022-08-20T03:45:53.847Z,100416
2022-08-20T03:46:54.535Z,100423
2022-08-20T03:47:55.201Z,100427
2022-08-20T03:49:00.310Z,100426
2022-08-20T03:49:58.307Z,100430
2022-08-20T03:50:53.764Z,100426
2022-08-20T03:51:57.974Z,100430
2022-08-20T03:52:54.843Z,100437
2022-08-20T03:53:53.722Z,100438
2022-08-20T03:54:53.753Z,100442
2022-08-20T03:56:00.449Z,100444
2022-08-20T03:56:53.807Z,100456
2022-08-20T03:59:54.912Z,100460
2022-08-20T04:00:54.442Z,100460
2022-08-20T04:01:54.894Z,100460
2022-08-20T04:05:54.305Z,100463
2022-08-20T04:06:54.082Z,100463
2022-08-20T04:07:53.835Z,100465
2022-08-20T04:08:54.505Z,100471
2022-08-20T04:10:54.909Z,100469
2022-08-20T04:13:53.952Z,100476
2022-08-20T04:14:54.071Z,100481
2022-08-20T04:15:55.711Z,100480
2022-08-20T04:16:53.726Z,100474
2022-08-20T04:17:54.374Z,100477
2022-08-20T04:18:56.243Z,100478
2022-08-20T04:19:53.795Z,100482
2022-08-20T04:20:55.541Z,100487
2022-08-20T04:21:53.883Z,100489
2022-08-20T04:22:58.431Z,100488
2022-08-20T04:23:53.733Z,100491
2022-08-20T04:24:53.823Z,100494
2022-08-20T04:25:56.615Z,100494
2022-08-20T04:26:55.065Z,100496
2022-08-20T04:27:53.767Z,100499
2022-08-20T04:28:55.965Z,100502
2022-08-20T04:29:53.720Z,100500
2022-08-20T04:30:54.200Z,100502
2022-08-20T04:31:53.806Z,100504
2022-08-20T04:32:55.516Z,100503
2022-08-20T04:34:53.813Z,100507
2022-08-20T04:35:54.929Z,100506
2022-08-20T04:36:53.785Z,100504
2022-08-20T04:38:01.600Z,100504
2022-08-20T04:38:53.735Z,100502
2022-08-20T04:40:03.119Z,100501
2022-08-20T04:40:54.368Z,100503
2022-08-20T04:41:53.785Z,100504
2022-08-20T04:42:54.030Z,100506
2022-08-20T04:43:55.336Z,100506
2022-08-20T04:44:53.739Z,100510
2022-08-20T04:45:55.501Z,100506
2022-08-20T04:46:53.771Z,100511
2022-08-20T04:47:54.109Z,100510
2022-08-20T04:48:54.046Z,100510
2022-08-20T04:50:54.656Z,100516
2022-08-20T04:51:54.858Z,100515
2022-08-20T04:52:53.687Z,100516
2022-08-20T04:53:54.825Z,100512
2022-08-20T04:54:56.347Z,100513
2022-08-20T04:55:55.607Z,100510
2022-08-20T04:57:54.774Z,100509
2022-08-20T04:58:55.700Z,100505
2022-08-20T04:59:58.931Z,100508
2022-08-20T05:00:56.604Z,100513
2022-08-20T05:01:53.688Z,100509
2022-08-20T05:02:53.683Z,100510
2022-08-20T05:03:55.197Z,100512
2022-08-20T05:04:53.706Z,100520
2022-08-20T05:05:54.460Z,100522
2022-08-20T05:06:53.770Z,100524
2022-08-20T05:07:53.839Z,100529
2022-08-20T05:10:58.121Z,100531
2022-08-20T05:11:53.713Z,100531
2022-08-20T05:12:57.097Z,100528
2022-08-20T05:13:54.104Z,100528
2022-08-20T05:14:55.179Z,100527
2022-08-20T05:15:54.179Z,100528
2022-08-20T05:18:00.868Z,100530
2022-08-20T05:19:54.082Z,100531
2022-08-20T05:21:53.821Z,100531
2022-08-20T05:22:56.329Z,100529
2022-08-20T05:23:54.047Z,100530
2022-08-20T05:24:53.961Z,100530
2022-08-20T05:25:53.717Z,100531
2022-08-20T05:26:56.157Z,100529
2022-08-20T05:28:58.372Z,100535
2022-08-20T05:30:54.797Z,100538
2022-08-20T05:31:54.202Z,100538
2022-08-20T05:32:53.676Z,100537
2022-08-20T05:33:56.982Z,100541
2022-08-20T05:34:54.801Z,100542
2022-08-20T05:35:55.564Z,100540
2022-08-20T05:36:54.014Z,100543
2022-08-20T05:37:54.452Z,100544
2022-08-20T05:38:54.999Z,100546
2022-08-20T05:39:53.938Z,100545
2022-08-20T05:40:53.997Z,100551
2022-08-20T05:41:53.752Z,100552
2022-08-20T05:42:54.042Z,100551
2022-08-20T05:44:53.981Z,100553
2022-08-20T05:45:56.517Z,100559
2022-08-20T05:47:56.633Z,100561
2022-08-20T05:51:53.805Z,100558
2022-08-20T05:54:55.711Z,100558
2022-08-20T05:55:54.812Z,100556
2022-08-20T05:58:00.470Z,100558
2022-08-20T05:59:53.804Z,100557
2022-08-20T06:03:03.042Z,100558
2022-08-20T06:04:56.294Z,100555
2022-08-20T06:05:53.694Z,100558
2022-08-20T06:08:07.113Z,100559
2022-08-20T06:08:53.943Z,100566
2022-08-20T06:10:53.986Z,100563
2022-08-20T06:11:53.670Z,100568
2022-08-20T06:12:53.670Z,100567
2022-08-20T06:13:53.645Z,100563
2022-08-20T06:14:53.724Z,100554
2022-08-20T06:16:57.266Z,100558
2022-08-20T06:17:58.447Z,100559
2022-08-20T06:18:53.824Z,100562
2022-08-20T06:19:53.620Z,100561
2022-08-20T06:24:53.914Z,100565
2022-08-20T06:25:53.972Z,100568
2022-08-20T06:26:58.862Z,100574
2022-08-20T06:27:53.703Z,100574
2022-08-20T06:28:54.290Z,100580
2022-08-20T06:29:54.092Z,100581
2022-08-20T06:30:53.707Z,100584
2022-08-20T06:31:54.536Z,100588
2022-08-20T06:33:53.702Z,100587
2022-08-20T06:34:54.148Z,100590
2022-08-20T06:35:53.831Z,100592
2022-08-20T06:36:53.665Z,100594
2022-08-20T06:37:55.142Z,100598
2022-08-20T06:38:55.084Z,100598
2022-08-20T06:39:54.254Z,100601
2022-08-20T06:40:53.662Z,100599
2022-08-20T06:41:55.795Z,100603
2022-08-20T06:42:53.884Z,100600
2022-08-20T06:43:54.156Z,100605
2022-08-20T06:44:53.636Z,100607
2022-08-20T06:45:56.491Z,100611
2022-08-20T06:46:57.133Z,100611
2022-08-20T06:47:56.056Z,100615
2022-08-20T06:49:53.626Z,100618
2022-08-20T06:51:53.630Z,100619
2022-08-20T06:53:53.759Z,100624
2022-08-20T06:55:56.354Z,100624
2022-08-20T06:59:56.039Z,100632
2022-08-20T07:01:56.700Z,100636
2022-08-20T07:02:53.640Z,100639
2022-08-20T07:03:54.467Z,100637
2022-08-20T07:04:55.899Z,100640
2022-08-20T07:05:53.690Z,100642
2022-08-20T07:06:54.618Z,100644
2022-08-20T07:07:53.675Z,100646
2022-08-20T07:08:55.933Z,100646
2022-08-20T07:10:00.843Z,100645
2022-08-20T07:10:53.824Z,100644
2022-08-20T07:12:53.864Z,100644
2022-08-20T07:13:53.606Z,100646
2022-08-20T07:14:53.590Z,100646
2022-08-20T07:15:53.975Z,100648
2022-08-20T07:18:00.921Z,100653
2022-08-20T07:19:53.601Z,100659
2022-08-20T07:21:53.805Z,100656
2022-08-20T07:22:53.752Z,100657
2022-08-20T07:24:53.800Z,100657
2022-08-20T07:25:55.887Z,100656
2022-08-20T07:26:56.831Z,100652
2022-08-20T07:27:53.791Z,100651
2022-08-20T07:30:03.164Z,100651
2022-08-20T07:31:12.168Z,100650
2022-08-20T07:32:53.783Z,100653
2022-08-20T07:35:53.687Z,100654
2022-08-20T07:37:55.092Z,100650
2022-08-20T07:38:54.533Z,100655
2022-08-20T07:42:03.063Z,100658
2022-08-20T07:42:56.177Z,100663
2022-08-20T07:43:53.626Z,100662
2022-08-20T07:44:53.667Z,100659
2022-08-20T07:45:55.961Z,100661
2022-08-20T07:46:53.639Z,100664
2022-08-20T07:47:54.651Z,100663
2022-08-20T07:48:53.639Z,100668
2022-08-20T07:49:53.563Z,100669
2022-08-20T07:53:54.366Z,100676
2022-08-20T07:54:53.562Z,100677
2022-08-20T07:56:54.281Z,100683
2022-08-20T07:57:53.669Z,100685
2022-08-20T07:58:56.955Z,100684
2022-08-20T08:00:53.925Z,100685
2022-08-20T08:01:54.004Z,100689
2022-08-20T08:02:53.693Z,100693
2022-08-20T08:03:53.950Z,100697
2022-08-20T08:04:53.811Z,100697
2022-08-20T08:05:54.048Z,100695
2022-08-20T08:06:54.217Z,100699
2022-08-20T08:09:54.623Z,100703
2022-08-20T08:11:57.625Z,100703
2022-08-20T08:13:54.749Z,100699
2022-08-20T08:14:56.501Z,100704
2022-08-20T08:15:57.649Z,100700
2022-08-20T08:16:57.522Z,100701
2022-08-20T08:17:57.343Z,100702
2022-08-20T08:18:58.575Z,100702
2022-08-20T08:19:53.555Z,100701
2022-08-20T08:20:55.234Z,100700
2022-08-20T08:21:53.616Z,100701
2022-08-20T08:22:54.013Z,100704
2022-08-20T08:23:53.747Z,100703
2022-08-20T08:24:57.620Z,100706
2022-08-20T08:25:53.683Z,100707
2022-08-20T08:26:53.575Z,100707
2022-08-20T08:27:53.538Z,100711
2022-08-20T08:28:53.512Z,100709
2022-08-20T08:29:54.765Z,100708
2022-08-20T08:30:53.565Z,100707
2022-08-20T08:31:53.558Z,100706
2022-08-20T08:38:54.912Z,100722
2022-08-20T08:42:58.576Z,100724
2022-08-20T08:44:54.756Z,100726
2022-08-20T08:46:01.644Z,100728
2022-08-20T08:47:01.231Z,100728
2022-08-20T08:47:56.296Z,100730
2022-08-20T08:50:57.623Z,100733
2022-08-20T08:53:00.543Z,100733
2022-08-20T08:59:00.839Z,100735
2022-08-20T09:01:57.000Z,100739
2022-08-20T09:03:07.863Z,100741
2022-08-20T09:03:53.671Z,100741
2022-08-20T09:04:56.913Z,100741
2022-08-20T09:08:59.222Z,100748
2022-08-20T09:09:54.196Z,100748
2022-08-20T09:12:54.192Z,100753
2022-08-20T09:13:55.441Z,100750
2022-08-20T09:14:53.660Z,100750
2022-08-20T09:15:53.609Z,100754
2022-08-20T09:16:53.767Z,100751
2022-08-20T09:17:53.583Z,100752
2022-08-20T09:18:54.056Z,100754
2022-08-20T09:22:53.838Z,100760
2022-08-20T09:24:53.859Z,100759
2022-08-20T09:25:53.543Z,100759
2022-08-20T09:30:53.601Z,100760
2022-08-20T09:32:06.074Z,100759
2022-08-20T09:32:54.017Z,100761
2022-08-20T09:33:53.933Z,100757
2022-08-20T09:34:57.019Z,100756
2022-08-20T09:35:53.588Z,100760
2022-08-20T09:36:53.548Z,100756
2022-08-20T09:39:53.709Z,100754
2022-08-20T09:40:53.566Z,100754
2022-08-20T09:41:53.574Z,100757
2022-08-20T09:42:53.811Z,100758
2022-08-20T09:43:53.620Z,100753
2022-08-20T09:44:53.512Z,100754
2022-08-20T09:45:53.659Z,100754
2022-08-20T09:46:53.508Z,100757
2022-08-20T09:51:53.682Z,100762
2022-08-20T09:52:55.439Z,100757
2022-08-20T09:55:56.051Z,100756
2022-08-20T09:56:53.512Z,100754
2022-08-20T09:57:54.080Z,100757
2022-08-20T09:59:01.009Z,100755
2022-08-20T09:59:59.652Z,100754
2022-08-20T10:00:53.627Z,100755
2022-08-20T10:01:53.610Z,100754
2022-08-20T10:02:53.617Z,100754
2022-08-20T10:03:53.574Z,100754
2022-08-20T10:04:53.821Z,100751
2022-08-20T10:06:53.618Z,100748
2022-08-20T10:08:53.488Z,100747
2022-08-20T10:09:53.627Z,100745
2022-08-20T10:10:53.545Z,100745
2022-08-20T10:11:53.523Z,100748
2022-08-20T10:12:55.027Z,100746
2022-08-20T10:19:53.960Z,100738
2022-08-20T10:21:54.438Z,100736
2022-08-20T10:23:53.548Z,100736
2022-08-20T10:25:53.531Z,100729
2022-08-20T10:26:57.197Z,100728
2022-08-20T10:27:53.488Z,100727
2022-08-20T10:28:53.753Z,100721
2022-08-20T10:29:53.486Z,100724
2022-08-20T10:30:53.525Z,100724
2022-08-20T10:31:55.218Z,100724
2022-08-20T10:32:53.643Z,100730
2022-08-20T10:33:53.519Z,100727
2022-08-20T10:34:53.602Z,100730
2022-08-20T10:38:53.564Z,100730
2022-08-20T10:39:54.940Z,100733
2022-08-20T10:40:53.461Z,100735
2022-08-20T10:41:53.486Z,100738
2022-08-20T10:43:53.422Z,100745
2022-08-20T10:44:53.551Z,100745
2022-08-20T10:46:53.596Z,100750
2022-08-20T10:51:53.654Z,100754
2022-08-20T10:52:53.624Z,100755
2022-08-20T10:53:53.519Z,100759
2022-08-20T10:56:54.561Z,100765
2022-08-20T10:58:53.763Z,100762
2022-08-20T11:00:54.184Z,100756
2022-08-20T11:04:54.879Z,100756
2022-08-20T11:09:53.907Z,100757
2022-08-20T11:10:53.703Z,100760
2022-08-20T11:11:53.463Z,100757
2022-08-20T11:12:53.608Z,100754
2022-08-20T11:19:54.924Z,100753
2022-08-20T11:20:53.545Z,100751
2022-08-20T11:21:53.459Z,100748
2022-08-20T11:22:54.541Z,100751
2022-08-20T11:23:53.422Z,100748
2022-08-20T11:24:54.176Z,100748
2022-08-20T11:25:54.700Z,100746
2022-08-20T11:26:53.584Z,100743
2022-08-20T11:27:56.224Z,100740
2022-08-20T11:28:53.488Z,100739
2022-08-20T11:31:53.927Z,100733
2022-08-20T11:33:53.460Z,100731
2022-08-20T11:34:53.676Z,100733
2022-08-20T11:40:53.472Z,100728
2022-08-20T11:41:55.235Z,100731
2022-08-20T11:44:17.443Z,100731
2022-08-20T11:44:53.773Z,100729
2022-08-20T11:46:53.485Z,100730
2022-08-20T11:47:53.468Z,100736
2022-08-20T11:48:53.380Z,100732
2022-08-20T11:52:53.902Z,100732
2022-08-20T11:53:53.465Z,100730
2022-08-20T11:55:53.554Z,100727
2022-08-20T11:56:53.458Z,100727
2022-08-20T11:57:53.456Z,100725
2022-08-20T11:59:55.927Z,100731
2022-08-20T12:04:54.046Z,100739
2022-08-20T12:05:53.445Z,100740
2022-08-20T12:07:53.670Z,100745
2022-08-20T12:08:53.386Z,100743
2022-08-20T12:14:55.503Z,100746
2022-08-20T12:15:55.712Z,100748
2022-08-20T12:16:53.421Z,100750
2022-08-20T12:17:54.174Z,100747
2022-08-20T12:19:55.623Z,100754
2022-08-20T12:21:53.402Z,100754
2022-08-20T12:23:53.552Z,100757
2022-08-20T12:24:54.607Z,100753
2022-08-20T12:26:53.465Z,100749
2022-08-20T12:28:55.736Z,100749
2022-08-20T12:29:55.225Z,100746
2022-08-20T12:30:53.394Z,100747
2022-08-20T12:32:53.566Z,100745
2022-08-20T12:37:02.872Z,100748
2022-08-20T12:38:53.436Z,100753
2022-08-20T12:39:57.965Z,100753
2022-08-20T12:40:53.409Z,100754
2022-08-20T12:41:53.376Z,100754
2022-08-20T12:43:53.733Z,100748
2022-08-20T12:45:53.847Z,100750
2022-08-20T12:46:53.501Z,100752
2022-08-20T12:47:53.613Z,100751
2022-08-20T12:48:53.692Z,100753
2022-08-20T12:50:53.468Z,100749
2022-08-20T12:51:53.375Z,100746
2022-08-20T12:52:53.386Z,100748
2022-08-20T13:00:53.691Z,100750
2022-08-20T13:01:54.743Z,100753
2022-08-20T13:04:53.686Z,100748
2022-08-20T13:09:53.576Z,100747
2022-08-20T13:10:53.376Z,100748
2022-08-20T13:12:53.709Z,100751
2022-08-20T13:15:53.430Z,100749
2022-08-20T13:16:58.230Z,100750
2022-08-20T13:21:54.771Z,100746
2022-08-20T13:24:53.706Z,100743
2022-08-20T13:25:53.591Z,100740
2022-08-20T13:26:53.667Z,100745
2022-08-20T13:31:53.514Z,100749
2022-08-20T13:32:53.421Z,100749
2022-08-20T13:34:53.653Z,100753
2022-08-20T13:36:55.472Z,100750
2022-08-20T13:40:53.372Z,100749
2022-08-20T13:42:53.965Z,100748
2022-08-20T13:44:53.977Z,100746
2022-08-20T13:47:55.855Z,100742
2022-08-20T13:50:53.350Z,100739
2022-08-20T13:52:53.495Z,100738
2022-08-20T13:56:53.332Z,100735
2022-08-20T13:59:56.290Z,100729
2022-08-20T14:03:53.478Z,100732
2022-08-20T14:05:54.032Z,100730
2022-08-20T14:06:53.568Z,100727
2022-08-20T14:08:53.406Z,100727
2022-08-20T14:09:57.308Z,100724
2022-08-20T14:11:53.370Z,100720
2022-08-20T14:12:53.385Z,100722
2022-08-20T14:13:53.302Z,100725
2022-08-20T14:14:54.307Z,100723
2022-08-20T14:18:53.460Z,100721
2022-08-20T14:20:53.301Z,100721
2022-08-20T14:21:53.311Z,100721
2022-08-20T14:23:53.297Z,100721
2022-08-20T14:25:53.545Z,100724
2022-08-20T14:26:53.312Z,100722
2022-08-20T14:27:54.354Z,100721
2022-08-20T14:28:53.350Z,100723
2022-08-20T14:30:53.802Z,100725
2022-08-20T14:32:54.233Z,100724
2022-08-20T14:34:54.020Z,100721
2022-08-20T14:39:57.182Z,100726
2022-08-20T14:41:53.388Z,100724
2022-08-20T14:42:54.142Z,100725
2022-08-20T14:44:53.760Z,100724
2022-08-20T14:47:57.355Z,100727
2022-08-20T14:48:53.572Z,100729
2022-08-20T14:50:55.571Z,100730
2022-08-20T14:52:53.815Z,100728
2022-08-20T14:53:53.324Z,100729
2022-08-20T14:54:53.270Z,100728
2022-08-20T14:55:53.266Z,100731
2022-08-20T14:57:54.408Z,100728
2022-08-20T15:00:53.354Z,100732
2022-08-20T15:03:53.340Z,100731
2022-08-20T15:05:53.306Z,100736
2022-08-20T15:07:54.386Z,100737
2022-08-20T15:10:53.566Z,100739
2022-08-20T15:12:53.347Z,100731
2022-08-20T15:14:53.484Z,100731
2022-08-20T15:15:53.997Z,100730
2022-08-20T15:17:56.874Z,100735
2022-08-20T15:18:58.157Z,100732
2022-08-20T15:19:55.797Z,100736
2022-08-20T15:20:53.329Z,100741
2022-08-20T15:21:53.362Z,100738
2022-08-20T15:22:54.207Z,100741
2022-08-20T15:23:53.775Z,100742
2022-08-20T15:25:53.596Z,100742
2022-08-20T15:29:53.951Z,100737
2022-08-20T15:30:53.305Z,100734
2022-08-20T15:36:53.415Z,100725
2022-08-20T15:37:55.006Z,100729
2022-08-20T15:38:53.586Z,100726
2022-08-20T15:40:53.419Z,100724
2022-08-20T15:41:53.309Z,100723
2022-08-20T15:45:53.635Z,100720
2022-08-20T15:46:53.405Z,100723
2022-08-20T15:48:00.460Z,100722
2022-08-20T15:48:53.559Z,100722
2022-08-20T15:51:10.271Z,100722
2022-08-20T15:52:55.645Z,100723
2022-08-20T15:58:02.079Z,100713
2022-08-20T16:00:02.211Z,100707
2022-08-20T16:01:23.963Z,100706
2022-08-20T16:02:08.189Z,100701
2022-08-20T16:02:59.842Z,100703
2022-08-20T16:04:07.340Z,100705
2022-08-20T16:05:06.557Z,100702
2022-08-20T16:06:59.426Z,100698
2022-08-20T16:08:59.633Z,100700
2022-08-20T16:10:04.315Z,100697
2022-08-20T16:12:58.578Z,100695
2022-08-20T16:14:05.913Z,100694
2022-08-20T16:17:03.665Z,100699
2022-08-20T16:17:59.665Z,100699
2022-08-20T16:18:54.775Z,100701
2022-08-20T16:19:57.244Z,100704
2022-08-20T16:20:56.297Z,100703
2022-08-20T16:21:55.018Z,100704
2022-08-20T16:23:55.534Z,100705
2022-08-20T16:24:53.277Z,100706
2022-08-20T16:26:09.638Z,100709
2022-08-20T16:27:06.536Z,100708
2022-08-20T16:29:08.794Z,100712
2022-08-20T16:30:02.168Z,100713
2022-08-20T16:32:01.273Z,100712
2022-08-20T16:34:05.149Z,100714
2022-08-20T16:35:59.748Z,100718
2022-08-20T16:38:06.887Z,100720
2022-08-20T16:39:02.719Z,100722
2022-08-20T16:40:01.498Z,100725
2022-08-20T16:42:55.437Z,100725
2022-08-20T16:43:56.778Z,100724
2022-08-20T16:44:57.394Z,100727
2022-08-20T16:46:00.116Z,100728
2022-08-20T16:47:03.005Z,100729
2022-08-20T16:47:57.746Z,100726
2022-08-20T16:48:58.451Z,100728
2022-08-20T16:52:53.992Z,100728
2022-08-20T16:53:53.503Z,100730
2022-08-20T16:54:53.284Z,100732
2022-08-20T16:55:54.018Z,100734
2022-08-20T16:57:02.519Z,100735
2022-08-20T16:58:53.300Z,100731
2022-08-20T17:01:07.890Z,100736
2022-08-20T17:03:53.236Z,100735
2022-08-20T17:05:57.186Z,100740
2022-08-20T17:08:53.808Z,100743
2022-08-20T17:11:53.423Z,100742
2022-08-20T17:12:57.242Z,100744
2022-08-20T17:17:56.023Z,100744
2022-08-20T17:21:53.390Z,100743
2022-08-20T17:24:53.390Z,100747
2022-08-20T17:27:10.190Z,100744
2022-08-20T17:27:53.684Z,100746
2022-08-20T17:28:56.882Z,100743
2022-08-20T17:29:56.554Z,100745
2022-08-20T17:30:53.648Z,100747
2022-08-20T17:37:54.839Z,100747
2022-08-20T17:41:01.515Z,100750
2022-08-20T17:41:59.890Z,100751
2022-08-20T17:44:01.760Z,100749
2022-08-20T17:45:55.054Z,100750
2022-08-20T17:46:54.536Z,100753
2022-08-20T17:48:55.428Z,100749
2022-08-20T17:50:03.778Z,100754
2022-08-20T17:50:55.212Z,100757
2022-08-20T17:51:55.462Z,100754
2022-08-20T17:52:58.287Z,100755
2022-08-20T17:53:57.245Z,100752
2022-08-20T17:57:00.163Z,100751
2022-08-20T17:57:59.380Z,100748
2022-08-20T17:59:03.249Z,100751
2022-08-20T18:00:02.415Z,100754
2022-08-20T18:00:53.273Z,100750
2022-08-20T18:01:53.773Z,100753
2022-08-20T18:02:56.049Z,100754
2022-08-20T18:03:54.934Z,100749
2022-08-20T18:04:54.111Z,100750
2022-08-20T18:06:04.401Z,100745
2022-08-20T18:08:06.862Z,100743
2022-08-20T18:08:58.172Z,100741
2022-08-20T18:10:02.428Z,100742
2022-08-20T18:11:05.096Z,100739
2022-08-20T18:11:56.689Z,100742
2022-08-20T18:13:02.412Z,100739
2022-08-20T18:14:10.105Z,100737
2022-08-20T18:15:08.264Z,100736
2022-08-20T18:15:58.015Z,100735
2022-08-20T18:16:59.893Z,100736
2022-08-20T18:18:02.852Z,100734
2022-08-20T18:19:06.847Z,100737
2022-08-20T18:20:11.450Z,100738
2022-08-20T18:21:11.179Z,100735
2022-08-20T18:22:01.860Z,100735
2022-08-20T18:23:00.234Z,100731
2022-08-20T18:24:02.410Z,100732
2022-08-20T18:25:02.788Z,100728
2022-08-20T18:26:00.920Z,100729
2022-08-20T18:26:59.397Z,100730
2022-08-20T18:27:56.675Z,100731
2022-08-20T18:28:59.096Z,100731
2022-08-20T18:30:58.109Z,100730
2022-08-20T18:33:04.888Z,100733
2022-08-20T18:33:53.446Z,100730
2022-08-20T18:34:53.851Z,100733
2022-08-20T18:36:07.820Z,100735
2022-08-20T18:37:00.963Z,100731
2022-08-20T18:37:53.495Z,100737